Time;durP1;ratioP1;P1;durP2;ratioP2;P2;SDS_P1;SDS_P2;PMS_P1;PMS_P2;Temp;Humidity;BMP_temperature;BMP_pressure;BME280_temperature;BME280_humidity;BME280_pressure;Samples;Min_cycle;Max_cycle;Signal;HPM_P1;HPM_P2
2023/04/30 00:00:31;;;;;;;;;;;;;;;8.4;63.14453;102520.2;;;;-68
2023/04/30 00:05:36;;;;;;;;;;;;;;;8.3;63.21875;102514;;;;-69
2023/04/30 00:10:33;;;;;;;;;;;;;;;8.23;63.32031;102509.6;;;;-70
2023/04/30 00:15:32;;;;;;;;;;;;;;;8.15;63.72852;102503.3;;;;-68
2023/04/30 00:20:31;;;;;;;;;;;;;;;8.09;63.6416;102501.6;;;;-69
2023/04/30 00:25:00;;;;;;;7.5;3.7;;;;;;;;;;;;;-71
2023/04/30 00:25:31;;;;;;;;;;;;;;;8.08;63.5293;102496.8;;;;-68
2023/04/30 00:30:32;;;;;;;;;;;;;;;8.02;63.54297;102500.9;;;;-69
2023/04/30 00:35:31;;;;;;;;;;;;;;;7.98;63.54785;102506.6;;;;-69
2023/04/30 00:40:32;;;;;;;;;;;;;;;7.9;63.75879;102503.5;;;;-69
2023/04/30 00:45:34;;;;;;;;;;;;;;;7.87;63.77539;102510.3;;;;-70
2023/04/30 00:50:31;;;;;;;;;;;;;;;7.85;63.58496;102518.8;;;;-69
2023/04/30 00:54:58;;;;;;;6.9;3.7;;;;;;;;;;;;;-71
2023/04/30 00:55:32;;;;;;;;;;;;;;;7.74;63.52441;102518.7;;;;-70
2023/04/30 01:00:32;;;;;;;;;;;;;;;7.68;63.68262;102514.5;;;;-69
2023/04/30 01:05:31;;;;;;;;;;;;;;;7.65;63.78711;102514.2;;;;-69
2023/04/30 01:10:35;;;;;;;;;;;;;;;7.58;63.44629;102521.4;;;;-69
2023/04/30 01:15:39;;;;;;;;;;;;;;;7.56;63.73145;102524.4;;;;-70
2023/04/30 01:20:32;;;;;;;;;;;;;;;7.48;63.67383;102521.1;;;;-70
2023/04/30 01:25:10;;;;;;;7.9;3.4;;;;;;;;;;;;;-69
2023/04/30 01:25:56;;;;;;;;;;;;;;;7.42;63.82031;102522.4;;;;-70
2023/04/30 01:30:32;;;;;;;;;;;;;;;7.4;63.53027;102515;;;;-70
2023/04/30 01:35:38;;;;;;;;;;;;;;;7.3;63.87891;102523.3;;;;-71
2023/04/30 01:40:35;;;;;;;;;;;;;;;7.28;64.07617;102522.3;;;;-69
2023/04/30 01:45:39;;;;;;;;;;;;;;;7.25;63.92676;102519.7;;;;-68
2023/04/30 01:50:37;;;;;;;;;;;;;;;7.2;63.81055;102523.6;;;;-68
2023/04/30 01:55:03;;;;;;;6.3;3.4;;;;;;;;;;;;;-68
2023/04/30 01:55:38;;;;;;;;;;;;;;;7.14;63.95508;102524.3;;;;-68
2023/04/30 02:00:34;;;;;;;;;;;;;;;7.13;63.86719;102526.4;;;;-69
2023/04/30 02:05:31;;;;;;;;;;;;;;;7.07;64.08789;102525.1;;;;-69
2023/04/30 02:10:32;;;;;;;;;;;;;;;6.98;64.05176;102526.5;;;;-68
2023/04/30 02:15:34;;;;;;;;;;;;;;;6.95;63.90527;102525.6;;;;-69
2023/04/30 02:20:31;;;;;;;;;;;;;;;6.89;63.97363;102521.2;;;;-70
2023/04/30 02:25:00;;;;;;;8.8;3.6;;;;;;;;;;;;;-69
2023/04/30 02:25:36;;;;;;;;;;;;;;;6.84;64.20801;102518.8;;;;-69
2023/04/30 02:30:31;;;;;;;;;;;;;;;6.81;64.16016;102517.6;;;;-70
2023/04/30 02:35:34;;;;;;;;;;;;;;;6.77;64.17676;102514.3;;;;-69
2023/04/30 02:40:32;;;;;;;;;;;;;;;6.76;64.04297;102502.5;;;;-68
2023/04/30 02:45:31;;;;;;;;;;;;;;;6.71;64.10156;102505.2;;;;-68
2023/04/30 02:50:42;;;;;;;;;;;;;;;6.65;64.20313;102498.5;;;;-69
2023/04/30 02:55:03;;;;;;;6.2;3;;;;;;;;;;;;;-70
2023/04/30 02:55:31;;;;;;;;;;;;;;;6.6;64.06152;102493.7;;;;-69
2023/04/30 03:00:31;;;;;;;;;;;;;;;6.54;63.98926;102495.7;;;;-68
2023/04/30 03:05:33;;;;;;;;;;;;;;;6.57;63.98145;102495;;;;-68
2023/04/30 03:10:31;;;;;;;;;;;;;;;6.52;64.05078;102493.8;;;;-71
2023/04/30 03:15:35;;;;;;;;;;;;;;;6.47;64.30762;102492.3;;;;-69
2023/04/30 03:20:32;;;;;;;;;;;;;;;6.49;64.20117;102492.4;;;;-71
2023/04/30 03:25:04;;;;;;;5.4;2.7;;;;;;;;;;;;;-69
2023/04/30 03:25:34;;;;;;;;;;;;;;;6.5;64.09082;102486.9;;;;-70
2023/04/30 03:30:31;;;;;;;;;;;;;;;6.48;64.01172;102492.7;;;;-70
2023/04/30 03:35:34;;;;;;;;;;;;;;;6.45;64.52441;102487.6;;;;-70
2023/04/30 03:40:33;;;;;;;;;;;;;;;6.46;64.44922;102484.9;;;;-69
2023/04/30 03:45:41;;;;;;;;;;;;;;;6.47;64.30859;102483.4;;;;-69
2023/04/30 03:50:33;;;;;;;;;;;;;;;6.52;64.40332;102475.3;;;;-69
2023/04/30 03:55:03;;;;;;;4.9;2.6;;;;;;;;;;;;;-70
2023/04/30 03:55:34;;;;;;;;;;;;;;;6.49;64.93945;102474.7;;;;-70
2023/04/30 04:00:34;;;;;;;;;;;;;;;6.56;64.69531;102478.5;;;;-68
2023/04/30 04:05:32;;;;;;;;;;;;;;;6.58;64.47754;102470.9;;;;-69
2023/04/30 04:10:34;;;;;;;;;;;;;;;6.55;64.66113;102468.2;;;;-70
2023/04/30 04:15:35;;;;;;;;;;;;;;;6.61;64.78027;102476.8;;;;-68
2023/04/30 04:20:33;;;;;;;;;;;;;;;6.57;64.59863;102474.8;;;;-69
2023/04/30 04:25:04;;;;;;;4.7;2.2;;;;;;;;;;;;;-69
2023/04/30 04:25:35;;;;;;;;;;;;;;;6.59;64.40332;102481.7;;;;-69
2023/04/30 04:30:33;;;;;;;;;;;;;;;6.65;64.00391;102488.5;;;;-68
2023/04/30 04:35:34;;;;;;;;;;;;;;;6.6;64.16211;102493.4;;;;-69
2023/04/30 04:40:32;;;;;;;;;;;;;;;6.59;64.32617;102495.7;;;;-70
2023/04/30 04:45:34;;;;;;;;;;;;;;;6.65;64.00391;102505.4;;;;-69
2023/04/30 04:50:31;;;;;;;;;;;;;;;6.65;63.90625;102510.8;;;;-69
2023/04/30 04:55:06;;;;;;;4.7;2.1;;;;;;;;;;;;;-69
2023/04/30 04:55:38;;;;;;;;;;;;;;;6.65;63.88379;102513.3;;;;-69
2023/04/30 05:00:32;;;;;;;;;;;;;;;6.65;63.7832;102509.5;;;;-69
2023/04/30 05:05:31;;;;;;;;;;;;;;;6.68;64.02051;102510.1;;;;-70
2023/04/30 05:10:33;;;;;;;;;;;;;;;6.74;63.94043;102515.3;;;;-70
2023/04/30 05:15:32;;;;;;;;;;;;;;;6.77;63.84473;102517;;;;-70
2023/04/30 05:20:31;;;;;;;;;;;;;;;6.83;63.60059;102523.1;;;;-68
2023/04/30 05:25:06;;;;;;;4.5;2;;;;;;;;;;;;;-67
2023/04/30 05:25:32;;;;;;;;;;;;;;;6.86;63.81445;102526.9;;;;-70
2023/04/30 05:30:32;;;;;;;;;;;;;;;6.92;63.61426;102531.5;;;;-69
2023/04/30 05:35:34;;;;;;;;;;;;;;;7.01;63.70508;102530.1;;;;-69
2023/04/30 05:40:32;;;;;;;;;;;;;;;7.18;64.60156;102529.3;;;;-70
2023/04/30 05:50:31;;;;;;;;;;;;;;;8.46;61.64844;102531.4;;;;-69
2023/04/30 05:55:12;;;;;;;4.5;2.2;;;;;;;;;;;;;-69
2023/04/30 05:55:31;;;;;;;;;;;;;;;8.83;61.25879;102531;;;;-69
2023/04/30 06:00:39;;;;;;;;;;;;;;;9.5;61.1416;102535.9;;;;-70
2023/04/30 06:05:34;;;;;;;;;;;;;;;10.03;60.44922;102534.1;;;;-69
2023/04/30 06:10:32;;;;;;;;;;;;;;;10.44;59.75;102534.8;;;;-70
2023/04/30 06:15:32;;;;;;;;;;;;;;;10.89;59.25293;102540.6;;;;-68
2023/04/30 06:20:31;;;;;;;;;;;;;;;11.24;59.16699;102540.4;;;;-70
2023/04/30 06:25:08;;;;;;;4.7;2.4;;;;;;;;;;;;;-69
2023/04/30 06:25:31;;;;;;;;;;;;;;;11.6;58.54688;102538.1;;;;-69
2023/04/30 06:30:32;;;;;;;;;;;;;;;11.89;58.42871;102542;;;;-70
2023/04/30 06:35:35;;;;;;;;;;;;;;;12.17;58.35547;102547.3;;;;-69
2023/04/30 06:40:31;;;;;;;;;;;;;;;12.32;58.4082;102549.1;;;;-69
2023/04/30 06:45:31;;;;;;;;;;;;;;;12.25;58.36621;102551.8;;;;-70
2023/04/30 06:50:31;;;;;;;;;;;;;;;12.2;58.76074;102554.1;;;;-70
2023/04/30 06:55:09;;;;;;;4.4;2.6;;;;;;;;;;;;;-70
2023/04/30 06:55:31;;;;;;;;;;;;;;;12.53;59.3418;102556.6;;;;-70
2023/04/30 07:00:31;;;;;;;;;;;;;;;13.04;57.78711;102550.1;;;;-70
2023/04/30 07:05:32;;;;;;;;;;;;;;;13.2;57.37109;102555.9;;;;-69
2023/04/30 07:10:35;;;;;;;;;;;;;;;13.11;57.67285;102550.7;;;;-70
2023/04/30 07:15:31;;;;;;;;;;;;;;;13.2;57.38281;102561.2;;;;-69
2023/04/30 07:20:32;;;;;;;;;;;;;;;13.3;57.58594;102560.1;;;;-68
2023/04/30 07:25:11;;;;;;;4.9;2.4;;;;;;;;;;;;;-68
2023/04/30 07:25:31;;;;;;;;;;;;;;;13.49;57.4541;102556.7;;;;-70
2023/04/30 07:30:32;;;;;;;;;;;;;;;13.89;56.76563;102559;;;;-68
2023/04/30 07:35:31;;;;;;;;;;;;;;;13.8;57.03418;102553.3;;;;-70
2023/04/30 07:40:31;;;;;;;;;;;;;;;14.03;57.06348;102547.5;;;;-70
2023/04/30 07:45:34;;;;;;;;;;;;;;;14.52;56.63379;102553.6;;;;-70
2023/04/30 07:50:32;;;;;;;;;;;;;;;14.82;56.04102;102554.4;;;;-69
2023/04/30 07:55:15;;;;;;;5.1;2.6;;;;;;;;;;;;;-69
2023/04/30 07:55:31;;;;;;;;;;;;;;;14.89;55.80371;102548.5;;;;-70
2023/04/30 08:00:32;;;;;;;;;;;;;;;15.09;55.92969;102549.6;;;;-69
2023/04/30 08:05:31;;;;;;;;;;;;;;;15.51;55.23926;102554.4;;;;-69
2023/04/30 08:10:31;;;;;;;;;;;;;;;15.83;54.84961;102562.4;;;;-69
2023/04/30 08:15:32;;;;;;;;;;;;;;;15.98;54.8457;102570.1;;;;-69
2023/04/30 08:20:31;;;;;;;;;;;;;;;16.18;54.70215;102562.4;;;;-70
2023/04/30 08:25:17;;;;;;;3.4;2;;;;;;;;;;;;;-70
2023/04/30 08:25:31;;;;;;;;;;;;;;;16.5;54.79785;102559.4;;;;-69
2023/04/30 08:30:32;;;;;;;;;;;;;;;16.86;54.32227;102558.8;;;;-71
2023/04/30 08:35:32;;;;;;;;;;;;;;;17.19;53.90918;102553.2;;;;-69
2023/04/30 08:40:32;;;;;;;;;;;;;;;17.4;53.65332;102552.5;;;;-70
2023/04/30 08:45:32;;;;;;;;;;;;;;;17.57;53.65137;102547.7;;;;-69
2023/04/30 08:50:31;;;;;;;;;;;;;;;17.87;53.22168;102549.7;;;;-71
2023/04/30 08:55:18;;;;;;;3.5;1.8;;;;;;;;;;;;;-69
2023/04/30 08:55:32;;;;;;;;;;;;;;;18.24;52.81152;102549.5;;;;-70
2023/04/30 09:00:34;;;;;;;;;;;;;;;18.54;52.41504;102550.3;;;;-68
2023/04/30 09:05:31;;;;;;;;;;;;;;;18.83;51.76758;102558.3;;;;-69
2023/04/30 09:10:35;;;;;;;;;;;;;;;18.96;51.82813;102554.7;;;;-69
2023/04/30 09:15:32;;;;;;;;;;;;;;;19.13;51.59863;102551.1;;;;-68
2023/04/30 09:20:32;;;;;;;;;;;;;;;19.44;51.22363;102550.9;;;;-69
2023/04/30 09:25:21;;;;;;;6.6;2.6;;;;;;;;;;;;;-70
2023/04/30 09:25:42;;;;;;;;;;;;;;;19.6;51.10547;102544.2;;;;-69
2023/04/30 09:30:36;;;;;;;;;;;;;;;19.82;51.05078;102539.4;;;;-70
2023/04/30 09:35:38;;;;;;;;;;;;;;;19.97;50.76074;102525.4;;;;-68
2023/04/30 09:40:40;;;;;;;;;;;;;;;20.28;50.25977;102524.8;;;;-70
2023/04/30 09:45:41;;;;;;;;;;;;;;;20.63;49.95508;102522.8;;;;-70
2023/04/30 09:50:40;;;;;;;;;;;;;;;20.82;49.26855;102521.8;;;;-66
2023/04/30 09:55:25;;;;;;;4.9;2.3;;;;;;;;;;;;;-67
2023/04/30 09:55:35;;;;;;;;;;;;;;;21.21;48.49902;102519.3;;;;-68
2023/04/30 10:00:32;;;;;;;;;;;;;;;21.46;48.61719;102515;;;;-71
2023/04/30 10:05:31;;;;;;;;;;;;;;;21.72;49.28809;102510.7;;;;-68
2023/04/30 10:10:32;;;;;;;;;;;;;;;21.85;47.82324;102503.8;;;;-67
2023/04/30 10:15:38;;;;;;;;;;;;;;;21.99;47.87305;102496.5;;;;-67
2023/04/30 10:20:32;;;;;;;;;;;;;;;22.15;49.09473;102498.8;;;;-68
2023/04/30 10:25:27;;;;;;;4.5;1.8;;;;;;;;;;;;;-68
2023/04/30 10:25:37;;;;;;;;;;;;;;;22.2;47.76855;102493.9;;;;-67
2023/04/30 10:30:32;;;;;;;;;;;;;;;22.5;47.2959;102495.9;;;;-67
2023/04/30 10:35:45;;;;;;;;;;;;;;;22.76;48.9209;102498;;;;-68
2023/04/30 10:40:38;;;;;;;;;;;;;;;22.95;50.22754;102498.6;;;;-67
2023/04/30 10:45:42;;;;;;;;;;;;;;;22.99;48.55566;102488.1;;;;-68
2023/04/30 10:50:32;;;;;;;;;;;;;;;23.27;48.96484;102487.6;;;;-68
2023/04/30 10:55:32;;;;;;;3.9;1.6;;;;;;;;;;;;;-72
2023/04/30 10:55:47;;;;;;;;;;;;;;;23.53;50.61426;102486.4;;;;-68
2023/04/30 11:00:32;;;;;;;;;;;;;;;23.6;50.40332;102480.3;;;;-66
2023/04/30 11:05:42;;;;;;;;;;;;;;;23.78;50.13672;102475.2;;;;-69
2023/04/30 11:10:35;;;;;;;;;;;;;;;24.13;48.4707;102468.4;;;;-68
2023/04/30 11:15:36;;;;;;;;;;;;;;;24.31;49.27441;102468.9;;;;-67
2023/04/30 11:20:32;;;;;;;;;;;;;;;24.45;48.95508;102458;;;;-67
2023/04/30 11:25:41;;;;;;;;;;;;;;;24.54;49.85254;102451.4;;;;-67
2023/04/30 11:25:51;;;;;;;3.3;1.5;;;;;;;;;;;;;-67
2023/04/30 11:30:35;;;;;;;;;;;;;;;24.76;49.91113;102443.8;;;;-67
2023/04/30 11:35:32;;;;;;;;;;;;;;;24.89;48.40234;102436.2;;;;-68
2023/04/30 11:40:31;;;;;;;;;;;;;;;24.94;50.49707;102425.5;;;;-68
2023/04/30 11:45:31;;;;;;;;;;;;;;;25.08;49.3584;102421.4;;;;-68
2023/04/30 11:50:36;;;;;;;;;;;;;;;25.29;49.30176;102422.5;;;;-68
2023/04/30 11:55:31;;;;;;;;;;;;;;;25.26;50.93555;102419.7;;;;-67
2023/04/30 11:55:44;;;;;;;3.6;1.5;;;;;;;;;;;;;-67
2023/04/30 12:00:33;;;;;;;;;;;;;;;25.24;51.76563;102403.4;;;;-68
2023/04/30 12:05:31;;;;;;;;;;;;;;;25.55;52.73535;102399.3;;;;-67
2023/04/30 12:10:31;;;;;;;;;;;;;;;25.47;53.38477;102389.6;;;;-69
2023/04/30 12:15:33;;;;;;;;;;;;;;;25.7;52.7998;102392.5;;;;-67
2023/04/30 12:20:33;;;;;;;;;;;;;;;25.71;53.36621;102389.4;;;;-67
2023/04/30 12:25:32;;;;;;;;;;;;;;;25.82;52.16699;102390;;;;-69
2023/04/30 12:25:47;;;;;;;3.9;1.3;;;;;;;;;;;;;-68
2023/04/30 12:30:32;;;;;;;;;;;;;;;25.74;54.52344;102382.1;;;;-68
2023/04/30 12:35:32;;;;;;;;;;;;;;;25.88;53.00586;102378.9;;;;-67
2023/04/30 12:40:34;;;;;;;;;;;;;;;25.92;54.1416;102374.1;;;;-68
2023/04/30 12:45:43;;;;;;;;;;;;;;;25.94;53.90137;102366.4;;;;-67
2023/04/30 12:50:31;;;;;;;;;;;;;;;25.99;53.11035;102365;;;;-68
2023/04/30 12:55:38;;;;;;;;;;;;;;;25.88;52.03516;102363.9;;;;-69
2023/04/30 12:55:59;;;;;;;3.1;1.5;;;;;;;;;;;;;-65
2023/04/30 13:00:32;;;;;;;;;;;;;;;26.05;54.72363;102360.4;;;;-67
2023/04/30 13:05:34;;;;;;;;;;;;;;;26.1;54.19824;102353.1;;;;-66
2023/04/30 13:10:31;;;;;;;;;;;;;;;26.12;54.48926;102351.8;;;;-68
2023/04/30 13:15:31;;;;;;;;;;;;;;;26.13;53.56543;102341.6;;;;-67
2023/04/30 13:20:35;;;;;;;;;;;;;;;26.05;54.53906;102333.5;;;;-68
2023/04/30 13:25:32;;;;;;;;;;;;;;;26.17;53.68652;102331.6;;;;-69
2023/04/30 13:26:03;;;;;;;5.2;1.4;;;;;;;;;;;;;-67
2023/04/30 13:30:32;;;;;;;;;;;;;;;26.38;51.46777;102329.8;;;;-71
2023/04/30 13:35:31;;;;;;;;;;;;;;;26.32;51.76172;102326.2;;;;-70
2023/04/30 13:40:31;;;;;;;;;;;;;;;26.41;51.2168;102320.8;;;;-69
2023/04/30 13:45:32;;;;;;;;;;;;;;;26.52;52.6416;102315.4;;;;-70
2023/04/30 13:50:31;;;;;;;;;;;;;;;26.54;51.60156;102311.2;;;;-67
2023/04/30 13:55:35;;;;;;;;;;;;;;;26.53;51.98242;102303.6;;;;-66
2023/04/30 13:55:58;;;;;;;4.5;1.5;;;;;;;;;;;;;-67
2023/04/30 14:00:31;;;;;;;;;;;;;;;26.55;52.35547;102301.3;;;;-68
2023/04/30 14:05:31;;;;;;;;;;;;;;;26.65;51.2334;102292.5;;;;-67
2023/04/30 14:10:32;;;;;;;;;;;;;;;26.65;51.55566;102290.2;;;;-67
2023/04/30 14:15:32;;;;;;;;;;;;;;;26.56;52.66895;102293.1;;;;-67
2023/04/30 14:20:31;;;;;;;;;;;;;;;26.65;51.24316;102289.1;;;;-69
2023/04/30 14:25:31;;;;;;;;;;;;;;;26.54;51.6709;102280.2;;;;-68
2023/04/30 14:26:03;;;;;;;3.4;1.3;;;;;;;;;;;;;-70
2023/04/30 14:30:31;;;;;;;;;;;;;;;26.53;51.36914;102275.7;;;;-69
2023/04/30 14:35:33;;;;;;;;;;;;;;;26.21;50.29297;102268;;;;-67
2023/04/30 14:40:31;;;;;;;;;;;;;;;26.02;51.11523;102267.8;;;;-68
2023/04/30 14:45:35;;;;;;;;;;;;;;;26.01;51.51855;102264.9;;;;-68
2023/04/30 14:50:31;;;;;;;;;;;;;;;25.94;50.04297;102260.3;;;;-69
2023/04/30 14:55:31;;;;;;;;;;;;;;;25.83;50.58398;102252.2;;;;-68
2023/04/30 14:56:08;;;;;;;2.5;1.2;;;;;;;;;;;;;-67
2023/04/30 15:00:32;;;;;;;;;;;;;;;25.88;52.11621;102249.8;;;;-68
2023/04/30 15:05:34;;;;;;;;;;;;;;;25.9;49.98047;102244.2;;;;-69
2023/04/30 15:10:31;;;;;;;;;;;;;;;25.86;50.06738;102237.5;;;;-68
2023/04/30 15:15:31;;;;;;;;;;;;;;;25.64;50.45996;102229.5;;;;-67
2023/04/30 15:20:31;;;;;;;;;;;;;;;25.64;49.02734;102220.4;;;;-67
2023/04/30 15:25:31;;;;;;;;;;;;;;;25.44;49.25977;102220.1;;;;-69
2023/04/30 15:26:16;;;;;;;3.8;1.3;;;;;;;;;;;;;-71
2023/04/30 15:30:35;;;;;;;;;;;;;;;25.26;49.53906;102214.2;;;;-73
2023/04/30 15:35:33;;;;;;;;;;;;;;;25.11;50.25;102212.9;;;;-70
2023/04/30 15:40:33;;;;;;;;;;;;;;;25.08;50.62793;102210.5;;;;-70
2023/04/30 15:45:35;;;;;;;;;;;;;;;24.98;48.77051;102209.7;;;;-71
2023/04/30 15:50:31;;;;;;;;;;;;;;;24.75;49.57617;102208.4;;;;-69
2023/04/30 15:55:34;;;;;;;;;;;;;;;24.62;49.44531;102205.7;;;;-68
2023/04/30 15:56:19;;;;;;;5.2;2.5;;;;;;;;;;;;;-68
2023/04/30 16:00:31;;;;;;;;;;;;;;;24.46;50.69629;102195.2;;;;-69
2023/04/30 16:05:32;;;;;;;;;;;;;;;24.33;50.60059;102189.2;;;;-70
2023/04/30 16:10:31;;;;;;;;;;;;;;;24.22;50.75;102180.5;;;;-68
2023/04/30 16:15:32;;;;;;;;;;;;;;;24.16;50.77734;102172.5;;;;-68
2023/04/30 16:20:31;;;;;;;;;;;;;;;24.06;50.08691;102170.6;;;;-68
2023/04/30 16:25:32;;;;;;;;;;;;;;;23.92;49.875;102166;;;;-73
2023/04/30 16:26:22;;;;;;;3.7;1.7;;;;;;;;;;;;;-70
2023/04/30 16:30:31;;;;;;;;;;;;;;;23.79;49.64355;102162.8;;;;-66
2023/04/30 16:35:31;;;;;;;;;;;;;;;23.61;49.3125;102156.6;;;;-67
2023/04/30 16:40:31;;;;;;;;;;;;;;;23.45;50.08789;102153.8;;;;-67
2023/04/30 16:45:32;;;;;;;;;;;;;;;23.28;49.8623;102154.5;;;;-69
2023/04/30 16:50:31;;;;;;;;;;;;;;;23.14;49.41016;102153.1;;;;-66
2023/04/30 16:55:32;;;;;;;;;;;;;;;22.97;50.36719;102148.8;;;;-66
2023/04/30 16:56:26;;;;;;;3.1;1.5;;;;;;;;;;;;;-66
2023/04/30 17:00:32;;;;;;;;;;;;;;;22.81;50.47656;102141.2;;;;-67
2023/04/30 17:05:32;;;;;;;;;;;;;;;22.63;50.82227;102136.7;;;;-68
2023/04/30 17:10:32;;;;;;;;;;;;;;;22.43;50.69629;102131.9;;;;-68
2023/04/30 17:15:31;;;;;;;;;;;;;;;22.16;51.29688;102131.8;;;;-67
2023/04/30 17:20:31;;;;;;;;;;;;;;;21.93;51.74121;102126.3;;;;-67
2023/04/30 17:25:32;;;;;;;;;;;;;;;21.66;51.76563;102120.5;;;;-67
2023/04/30 17:26:31;;;;;;;3.3;1.5;;;;;;;;;;;;;-67
2023/04/30 17:30:34;;;;;;;;;;;;;;;21.42;52.26367;102119.9;;;;-70
2023/04/30 17:35:32;;;;;;;;;;;;;;;21.19;52.46484;102110.9;;;;-67
2023/04/30 17:40:32;;;;;;;;;;;;;;;20.96;52.75977;102107.5;;;;-67
2023/04/30 17:45:31;;;;;;;;;;;;;;;20.68;53.0332;102108.4;;;;-68
2023/04/30 17:50:31;;;;;;;;;;;;;;;20.44;52.86914;102104;;;;-66
2023/04/30 17:55:34;;;;;;;;;;;;;;;20.24;51.97754;102103.2;;;;-69
2023/04/30 17:56:35;;;;;;;3.5;1.4;;;;;;;;;;;;;-69
2023/04/30 18:00:33;;;;;;;;;;;;;;;19.95;52.08008;102099.6;;;;-67
2023/04/30 18:05:32;;;;;;;;;;;;;;;19.72;52.44141;102095.4;;;;-69
2023/04/30 18:10:31;;;;;;;;;;;;;;;19.51;52.42773;102092.5;;;;-69
2023/04/30 18:15:32;;;;;;;;;;;;;;;19.3;52.36914;102095.1;;;;-69
2023/04/30 18:20:34;;;;;;;;;;;;;;;19.06;52.25;102095.1;;;;-69
2023/04/30 18:25:33;;;;;;;;;;;;;;;18.83;52.51855;102094.7;;;;-68
2023/04/30 18:26:38;;;;;;;3.2;1.4;;;;;;;;;;;;;-69
2023/04/30 18:30:33;;;;;;;;;;;;;;;18.6;52.62695;102091.6;;;;-70
2023/04/30 18:35:31;;;;;;;;;;;;;;;18.39;52.96484;102089;;;;-70
2023/04/30 18:40:33;;;;;;;;;;;;;;;18.18;52.91797;102086.4;;;;-69
2023/04/30 18:45:31;;;;;;;;;;;;;;;17.96;53.36816;102081.7;;;;-70
2023/04/30 18:50:37;;;;;;;;;;;;;;;17.75;53.25293;102082.3;;;;-68
2023/04/30 18:55:31;;;;;;;;;;;;;;;17.54;53.77148;102082.8;;;;-69
2023/04/30 18:56:44;;;;;;;3.2;1.3;;;;;;;;;;;;;-69
2023/04/30 19:00:31;;;;;;;;;;;;;;;17.32;54.56055;102081.5;;;;-69
2023/04/30 19:05:33;;;;;;;;;;;;;;;17.1;54.00098;102082.7;;;;-70
2023/04/30 19:10:33;;;;;;;;;;;;;;;16.91;54.22559;102088.3;;;;-69
2023/04/30 19:15:34;;;;;;;;;;;;;;;16.7;54.66504;102086.9;;;;-70
2023/04/30 19:20:32;;;;;;;;;;;;;;;16.52;54.60742;102084.9;;;;-69
2023/04/30 19:25:32;;;;;;;;;;;;;;;16.35;55.11816;102091;;;;-70
2023/04/30 19:26:45;;;;;;;3.5;1.3;;;;;;;;;;;;;-70
2023/04/30 19:30:34;;;;;;;;;;;;;;;16.15;55.53516;102093.4;;;;-68
2023/04/30 19:35:31;;;;;;;;;;;;;;;16;55.61523;102091.7;;;;-71
2023/04/30 19:40:32;;;;;;;;;;;;;;;15.84;55.95703;102093.2;;;;-71
2023/04/30 19:45:35;;;;;;;;;;;;;;;15.66;56.31738;102088.9;;;;-70
2023/04/30 19:50:33;;;;;;;;;;;;;;;15.52;56.37793;102083.8;;;;-68
2023/04/30 19:55:34;;;;;;;;;;;;;;;15.36;56.65137;102076.1;;;;-69
2023/04/30 19:56:51;;;;;;;4.2;1.4;;;;;;;;;;;;;-68
2023/04/30 20:00:31;;;;;;;;;;;;;;;15.23;57.05078;102075.9;;;;-70
2023/04/30 20:05:31;;;;;;;;;;;;;;;15.07;57.1875;102078.3;;;;-69
2023/04/30 20:10:32;;;;;;;;;;;;;;;14.95;57.2959;102077.2;;;;-69
2023/04/30 20:15:31;;;;;;;;;;;;;;;14.83;57.4707;102077.4;;;;-69
2023/04/30 20:20:32;;;;;;;;;;;;;;;14.72;57.61523;102076.4;;;;-69
2023/04/30 20:25:34;;;;;;;;;;;;;;;14.58;57.99121;102079.6;;;;-69
2023/04/30 20:26:53;;;;;;;3.5;1.5;;;;;;;;;;;;;-70
2023/04/30 20:30:34;;;;;;;;;;;;;;;14.47;58.02051;102072.4;;;;-69
2023/04/30 20:35:34;;;;;;;;;;;;;;;14.37;58.25391;102068.4;;;;-70
2023/04/30 20:40:31;;;;;;;;;;;;;;;14.24;58.28223;102063.1;;;;-69
2023/04/30 20:45:31;;;;;;;;;;;;;;;14.15;58.52832;102063;;;;-69
2023/04/30 20:50:31;;;;;;;;;;;;;;;14.04;58.81836;102059.2;;;;-69
2023/04/30 20:55:31;;;;;;;;;;;;;;;13.96;59.13281;102054.7;;;;-68
2023/04/30 20:56:51;;;;;;;4.5;1.6;;;;;;;;;;;;;-70
2023/04/30 21:00:31;;;;;;;;;;;;;;;13.85;58.9707;102059;;;;-70
2023/04/30 21:05:32;;;;;;;;;;;;;;;13.78;59.29785;102053.8;;;;-68
2023/04/30 21:10:39;;;;;;;;;;;;;;;13.67;59.25098;102051.5;;;;-70
2023/04/30 21:15:31;;;;;;;;;;;;;;;13.56;59.17871;102051.7;;;;-70
2023/04/30 21:20:33;;;;;;;;;;;;;;;13.46;59.40039;102047.6;;;;-69
2023/04/30 21:25:31;;;;;;;;;;;;;;;13.37;59.75879;102039.8;;;;-70
2023/04/30 21:26:57;;;;;;;3.4;1.5;;;;;;;;;;;;;-71
2023/04/30 21:30:31;;;;;;;;;;;;;;;13.27;59.67773;102034.1;;;;-70
2023/04/30 21:35:32;;;;;;;;;;;;;;;13.2;59.52246;102033.4;;;;-69
2023/04/30 21:40:33;;;;;;;;;;;;;;;13.08;59.81934;102031.9;;;;-70
2023/04/30 21:45:31;;;;;;;;;;;;;;;12.98;60.01953;102025.1;;;;-70
2023/04/30 21:50:35;;;;;;;;;;;;;;;12.91;60.33496;102026;;;;-68
2023/04/30 21:55:31;;;;;;;;;;;;;;;12.82;60.09766;102019.7;;;;-69
2023/04/30 21:56:55;;;;;;;3.2;1.4;;;;;;;;;;;;;-69
2023/04/30 22:00:31;;;;;;;;;;;;;;;12.73;60.32031;102017.4;;;;-70
2023/04/30 22:05:33;;;;;;;;;;;;;;;12.65;60.5;102013.8;;;;-70
2023/04/30 22:10:31;;;;;;;;;;;;;;;12.58;60.5;102009.4;;;;-70
2023/04/30 22:15:33;;;;;;;;;;;;;;;12.52;60.65039;102005.7;;;;-69
2023/04/30 22:20:31;;;;;;;;;;;;;;;12.46;60.54102;102000.2;;;;-69
2023/04/30 22:25:32;;;;;;;;;;;;;;;12.38;60.80859;101996.9;;;;-68
2023/04/30 22:26:58;;;;;;;1.9;1.1;;;;;;;;;;;;;-70
2023/04/30 22:30:31;;;;;;;;;;;;;;;12.31;60.8418;101990.6;;;;-69
2023/04/30 22:35:32;;;;;;;;;;;;;;;12.27;61.11816;101991.4;;;;-69
2023/04/30 22:40:34;;;;;;;;;;;;;;;12.22;61.02246;101988;;;;-69
2023/04/30 22:45:35;;;;;;;;;;;;;;;12.22;61.06641;101986.1;;;;-69
2023/04/30 22:50:34;;;;;;;;;;;;;;;12.11;60.88281;101991.4;;;;-68
2023/04/30 22:55:35;;;;;;;;;;;;;;;12.04;61.30762;101985.8;;;;-70
2023/04/30 22:57:02;;;;;;;2.7;1.3;;;;;;;;;;;;;-69
2023/04/30 23:00:34;;;;;;;;;;;;;;;11.97;61.07617;101986.1;;;;-70
2023/04/30 23:05:31;;;;;;;;;;;;;;;11.92;61.03516;101982.7;;;;-67
2023/04/30 23:10:32;;;;;;;;;;;;;;;11.85;60.96973;101980.1;;;;-70
2023/04/30 23:15:31;;;;;;;;;;;;;;;11.79;61.16211;101976.5;;;;-69
2023/04/30 23:20:31;;;;;;;;;;;;;;;11.72;61.38574;101978;;;;-70
2023/04/30 23:25:32;;;;;;;;;;;;;;;11.68;61.14648;101971.2;;;;-68
2023/04/30 23:27:00;;;;;;;2.2;1.2;;;;;;;;;;;;;-69
2023/04/30 23:30:31;;;;;;;;;;;;;;;11.6;61.48145;101971.1;;;;-70
2023/04/30 23:35:33;;;;;;;;;;;;;;;11.55;61.45215;101967.5;;;;-69
2023/04/30 23:40:31;;;;;;;;;;;;;;;11.46;61.11523;101964.6;;;;-69
2023/04/30 23:45:34;;;;;;;;;;;;;;;11.41;61.21973;101959.9;;;;-69
2023/04/30 23:50:32;;;;;;;;;;;;;;;11.38;61.23828;101953.8;;;;-69
2023/04/30 23:55:34;;;;;;;;;;;;;;;11.27;61.64551;101949.6;;;;-69
2023/04/30 23:57:02;;;;;;;2.2;1.1;;;;;;;;;;;;;-69
